createdAt,value
2023-03-19T00:01:07.716Z,33.56
2023-03-19T00:03:01.411Z,32.68
2023-03-19T00:04:25.596Z,32.23
2023-03-19T00:05:50.058Z,30.39
2023-03-19T00:07:25.529Z,32.23
2023-03-19T00:08:57.673Z,30.23
2023-03-19T00:10:19.311Z,31.81
2023-03-19T00:11:43.627Z,31.47
2023-03-19T00:13:24.520Z,33.09
2023-03-19T00:14:53.267Z,35.30
2023-03-19T00:16:27.192Z,36.47
2023-03-19T00:18:07.467Z,40.11
2023-03-19T00:19:46.736Z,44.36
2023-03-19T00:21:08.080Z,50.54
2023-03-19T00:22:41.918Z,44.57
2023-03-19T00:24:30.622Z,41.65
2023-03-19T00:25:55.000Z,47.76
2023-03-19T00:27:35.773Z,42.52
2023-03-19T00:29:18.810Z,37.84
2023-03-19T00:30:54.261Z,37.66
2023-03-19T00:32:48.869Z,33.39
2023-03-19T00:34:22.302Z,31.89
2023-03-19T00:35:44.078Z,31.24
2023-03-19T00:37:17.235Z,30.55
2023-03-19T00:38:58.253Z,31.19
2023-03-19T00:40:34.565Z,30.42
2023-03-19T00:42:19.372Z,30.23
2023-03-19T00:44:12.831Z,31.05
2023-03-19T00:45:58.171Z,30.61
2023-03-19T00:47:34.283Z,31.10
2023-03-19T00:49:07.755Z,30.61
2023-03-19T00:50:50.801Z,30.99
2023-03-19T00:52:22.386Z,33.43
2023-03-19T00:53:48.812Z,33.63
2023-03-19T00:55:29.160Z,31.67
2023-03-19T00:57:02.617Z,32.11
2023-03-19T00:58:38.632Z,33.85
2023-03-19T01:00:05.046Z,34.80
2023-03-19T01:01:38.745Z,34.82
2023-03-19T01:03:11.752Z,34.86
2023-03-19T01:04:59.930Z,35.19
2023-03-19T01:06:36.676Z,33.97
2023-03-19T01:08:17.395Z,33.46
2023-03-19T01:10:11.797Z,31.84
2023-03-19T01:12:05.605Z,32.39
2023-03-19T01:13:39.729Z,32.43
2023-03-19T01:15:24.354Z,31.87
2023-03-19T01:17:05.041Z,31.99
2023-03-19T01:18:40.258Z,32.61
2023-03-19T01:20:25.767Z,32.16
2023-03-19T01:22:06.349Z,32.01
2023-03-19T01:23:41.325Z,31.97
2023-03-19T01:25:26.115Z,33.25
2023-03-19T01:27:19.924Z,31.41
2023-03-19T01:29:00.520Z,32.53
2023-03-19T01:30:45.803Z,33.46
2023-03-19T01:32:41.710Z,35.90
2023-03-19T01:34:41.234Z,37.40
2023-03-19T01:36:18.365Z,36.22
2023-03-19T01:38:17.901Z,34.80
2023-03-19T01:40:04.820Z,35.14
2023-03-19T01:41:39.120Z,33.41
2023-03-19T01:43:26.941Z,33.82
2023-03-19T01:45:15.563Z,33.57
2023-03-19T01:47:14.772Z,33.69
2023-03-19T01:49:11.073Z,31.55
2023-03-19T01:50:56.697Z,32.19
2023-03-19T01:53:02.802Z,31.83
2023-03-19T01:55:39.790Z,32.87
2023-03-19T01:57:07.703Z,41.58
2023-03-19T01:58:48.554Z,35.00
2023-03-19T02:00:23.547Z,41.87
2023-03-19T02:02:02.134Z,43.59
2023-03-19T02:03:35.279Z,41.54
2023-03-19T02:05:26.551Z,37.94
2023-03-19T02:07:13.362Z,33.66
2023-03-19T02:09:01.872Z,31.61
2023-03-19T02:10:47.409Z,32.82
2023-03-19T02:12:32.053Z,32.51
2023-03-19T02:14:16.725Z,32.90
2023-03-19T02:16:02.664Z,33.73
2023-03-19T02:17:36.657Z,32.64
2023-03-19T02:19:05.932Z,31.82
2023-03-19T02:20:55.372Z,31.75
2023-03-19T02:24:40.980Z,31.08
2023-03-19T02:26:21.336Z,30.58
2023-03-19T02:28:09.330Z,34.61
2023-03-19T02:29:43.315Z,38.48
2023-03-19T02:31:28.505Z,42.93
2023-03-19T02:33:19.445Z,39.40
2023-03-19T02:34:52.800Z,34.62
2023-03-19T02:36:37.931Z,33.03
2023-03-19T02:38:22.569Z,32.31
2023-03-19T02:40:16.605Z,33.31
2023-03-19T02:42:02.203Z,31.76
2023-03-19T02:43:57.768Z,31.08
2023-03-19T02:45:23.904Z,32.13
2023-03-19T02:47:00.150Z,32.30
2023-03-19T02:48:49.805Z,32.06
2023-03-19T02:50:30.770Z,32.11
2023-03-19T02:52:04.288Z,33.15
2023-03-19T02:53:40.052Z,32.56
2023-03-19T02:55:24.989Z,32.22
2023-03-19T02:57:12.504Z,31.65
2023-03-19T02:59:06.005Z,31.94
2023-03-19T03:00:47.740Z,32.21
2023-03-19T03:02:16.407Z,31.88
2023-03-19T03:04:01.934Z,31.88
2023-03-19T03:05:33.878Z,36.91
2023-03-19T03:06:55.613Z,44.46
2023-03-19T03:08:28.810Z,47.49
2023-03-19T03:10:14.533Z,41.99
2023-03-19T03:11:55.030Z,40.76
2023-03-19T03:13:48.297Z,35.59
2023-03-19T03:15:21.759Z,34.45
2023-03-19T03:17:06.885Z,35.09
2023-03-19T03:18:51.259Z,32.62
2023-03-19T03:20:21.491Z,31.28
2023-03-19T03:21:57.547Z,31.99
2023-03-19T03:23:22.064Z,30.36
2023-03-19T03:25:11.246Z,30.87
2023-03-19T03:26:54.624Z,30.05
2023-03-19T03:28:49.890Z,31.17
2023-03-19T03:30:11.544Z,31.86
2023-03-19T03:31:51.273Z,32.16
2023-03-19T03:33:20.342Z,31.00
2023-03-19T03:35:01.079Z,31.45
2023-03-19T03:36:50.886Z,31.11
2023-03-19T03:38:40.134Z,31.33
2023-03-19T03:40:25.971Z,35.92
2023-03-19T03:41:52.251Z,37.61
2023-03-19T03:43:36.265Z,35.93
2023-03-19T03:45:16.183Z,34.50
2023-03-19T03:46:51.912Z,32.37
2023-03-19T03:48:25.347Z,32.68
2023-03-19T03:50:10.742Z,32.43
2023-03-19T03:51:52.820Z,31.60
2023-03-19T03:53:38.033Z,31.79
2023-03-19T03:55:14.139Z,31.12
2023-03-19T03:57:02.750Z,32.11
2023-03-19T03:58:39.469Z,29.84
2023-03-19T04:00:11.155Z,30.18
2023-03-19T04:01:38.335Z,30.84
2023-03-19T04:03:14.398Z,31.52
2023-03-19T04:04:48.903Z,30.11
2023-03-19T04:06:22.617Z,31.15
2023-03-19T04:08:13.520Z,30.32
2023-03-19T04:10:03.141Z,29.71
2023-03-19T04:11:51.272Z,30.39
2023-03-19T04:13:40.222Z,29.81
2023-03-19T04:15:15.944Z,30.18
2023-03-19T04:16:40.377Z,31.46
2023-03-19T04:18:15.774Z,31.34
2023-03-19T04:20:03.285Z,31.27
2023-03-19T04:21:36.506Z,29.50
2023-03-19T04:23:21.533Z,28.73
2023-03-19T04:24:55.240Z,28.13
2023-03-19T04:26:40.393Z,28.18
2023-03-19T04:28:14.027Z,28.34
2023-03-19T04:29:59.576Z,31.54
2023-03-19T04:31:35.672Z,28.80
2023-03-19T04:33:11.306Z,29.48
2023-03-19T04:34:53.390Z,29.09
2023-03-19T04:36:42.013Z,28.04
2023-03-19T04:38:26.769Z,28.83
2023-03-19T04:40:01.084Z,27.35
2023-03-19T04:41:47.144Z,27.30
2023-03-19T04:43:41.446Z,27.81
2023-03-19T04:45:16.605Z,27.83
2023-03-19T04:47:10.601Z,28.29
2023-03-19T04:49:13.812Z,27.63
2023-03-19T04:50:59.491Z,28.25
2023-03-19T04:52:45.079Z,29.23
2023-03-19T04:54:35.467Z,29.41
2023-03-19T04:56:16.095Z,29.29
2023-03-19T04:58:09.888Z,27.42
2023-03-19T04:59:55.442Z,26.82
2023-03-19T05:01:31.131Z,26.79
2023-03-19T05:03:14.184Z,27.41
2023-03-19T05:05:00.669Z,28.30
2023-03-19T05:06:36.913Z,27.46
2023-03-19T05:08:10.006Z,28.99
2023-03-19T05:10:03.702Z,30.35
2023-03-19T05:11:39.097Z,31.17
2023-03-19T05:13:07.928Z,30.81
2023-03-19T05:14:55.775Z,33.63
2023-03-19T05:16:45.807Z,31.19
2023-03-19T05:18:31.784Z,30.24
2023-03-19T05:20:17.083Z,29.78
2023-03-19T05:22:07.459Z,29.16
2023-03-19T05:24:01.005Z,28.52
2023-03-19T05:25:44.301Z,28.18
2023-03-19T05:27:18.242Z,29.90
2023-03-19T05:29:03.566Z,28.67
2023-03-19T05:30:55.577Z,31.19
2023-03-19T05:32:33.252Z,31.50
2023-03-19T05:34:19.488Z,28.36
2023-03-19T05:36:12.941Z,30.66
2023-03-19T05:38:01.434Z,30.31
2023-03-19T05:39:23.925Z,30.35
2023-03-19T05:40:57.830Z,31.31
2023-03-19T05:42:39.108Z,31.95
2023-03-19T05:44:20.979Z,30.31
2023-03-19T05:46:07.152Z,30.51
2023-03-19T05:47:51.593Z,31.52
2023-03-19T05:49:28.377Z,30.05
2023-03-19T05:51:02.262Z,29.70
2023-03-19T05:52:43.643Z,35.71
2023-03-19T05:54:24.435Z,30.01
2023-03-19T05:56:19.446Z,28.97
2023-03-19T05:58:13.483Z,28.58
2023-03-19T06:00:01.825Z,28.81
2023-03-19T06:01:41.009Z,27.11
2023-03-19T06:03:16.372Z,28.14
2023-03-19T06:04:57.448Z,26.81
2023-03-19T06:06:35.499Z,29.21
2023-03-19T06:08:16.187Z,27.70
2023-03-19T06:10:02.080Z,27.09
2023-03-19T06:11:56.199Z,27.80
2023-03-19T06:13:51.214Z,27.73
2023-03-19T06:15:28.782Z,27.08
2023-03-19T06:17:23.021Z,27.14
2023-03-19T06:19:07.910Z,28.36
2023-03-19T06:20:35.564Z,27.18
2023-03-19T06:22:11.338Z,28.53
2023-03-19T06:23:35.806Z,29.49
2023-03-19T06:25:11.845Z,27.69
2023-03-19T06:26:37.315Z,26.95
2023-03-19T06:28:26.308Z,28.93
2023-03-19T06:30:10.485Z,28.67
2023-03-19T06:31:44.286Z,26.84
2023-03-19T06:33:43.411Z,26.81
2023-03-19T06:35:18.151Z,27.24
2023-03-19T06:37:00.373Z,27.45
2023-03-19T06:38:29.574Z,26.63
2023-03-19T06:40:15.026Z,25.23
2023-03-19T06:42:09.901Z,25.94
2023-03-19T06:43:51.520Z,25.82
2023-03-19T06:45:25.929Z,25.54
2023-03-19T06:46:59.494Z,26.81
2023-03-19T06:48:26.361Z,28.12
2023-03-19T06:50:03.396Z,26.19
2023-03-19T06:51:51.517Z,26.63
2023-03-19T06:53:37.128Z,27.45
2023-03-19T06:55:17.776Z,27.13
2023-03-19T06:56:59.371Z,27.15
2023-03-19T06:58:35.818Z,26.74
2023-03-19T07:00:11.666Z,26.93
2023-03-19T07:01:53.436Z,24.94
2023-03-19T07:03:47.345Z,25.35
2023-03-19T07:05:31.914Z,25.32
2023-03-19T07:07:06.031Z,24.45
2023-03-19T07:08:51.298Z,24.58
2023-03-19T07:10:32.301Z,24.57
2023-03-19T07:12:08.782Z,24.69
2023-03-19T07:13:44.958Z,23.37
2023-03-19T07:15:30.497Z,25.00
2023-03-19T07:17:16.069Z,22.11
2023-03-19T07:18:51.967Z,22.08
2023-03-19T07:20:37.305Z,20.82
2023-03-19T07:22:19.857Z,20.28
2023-03-19T07:24:03.882Z,20.52
2023-03-19T07:25:49.608Z,21.23
2023-03-19T07:27:20.929Z,20.74
2023-03-19T07:28:57.655Z,20.35
2023-03-19T07:30:42.181Z,20.76
2023-03-19T07:32:23.790Z,20.46
2023-03-19T07:34:09.382Z,20.82
2023-03-19T07:35:46.011Z,20.67
2023-03-19T07:37:21.298Z,21.74
2023-03-19T07:39:07.636Z,21.30
2023-03-19T07:41:02.264Z,20.65
2023-03-19T07:42:38.459Z,21.46
2023-03-19T07:44:03.237Z,20.74
2023-03-19T07:45:36.960Z,20.39
2023-03-19T07:47:27.971Z,19.41
2023-03-19T07:49:09.729Z,20.28
2023-03-19T07:50:50.871Z,19.73
2023-03-19T07:52:26.669Z,18.87
2023-03-19T07:54:01.051Z,17.66
2023-03-19T07:55:42.518Z,19.32
2023-03-19T07:57:15.726Z,17.80
2023-03-19T07:58:48.177Z,18.28
2023-03-19T08:00:37.412Z,17.53
2023-03-19T08:02:13.300Z,18.15
2023-03-19T08:03:49.015Z,17.44
2023-03-19T08:05:34.216Z,18.35
2023-03-19T08:07:19.779Z,16.36
2023-03-19T08:09:14.846Z,17.08
2023-03-19T08:10:56.259Z,17.22
2023-03-19T08:12:41.780Z,16.99
2023-03-19T08:14:23.391Z,17.83
2023-03-19T08:16:08.113Z,18.31
2023-03-19T08:17:53.561Z,16.83
2023-03-19T08:19:41.176Z,17.53
2023-03-19T08:21:14.900Z,16.75
2023-03-19T08:23:00.400Z,17.21
2023-03-19T08:24:41.363Z,16.69
2023-03-19T08:26:05.583Z,17.36
2023-03-19T08:27:43.239Z,16.36
2023-03-19T08:29:18.935Z,16.71
2023-03-19T08:31:04.782Z,16.00
2023-03-19T08:32:50.486Z,16.90
2023-03-19T08:34:14.642Z,17.36
2023-03-19T08:35:50.631Z,16.84
2023-03-19T08:37:23.541Z,16.53
2023-03-19T08:39:11.945Z,15.91
2023-03-19T08:40:57.537Z,17.04
2023-03-19T08:42:45.032Z,16.67
2023-03-19T08:44:30.459Z,16.19
2023-03-19T08:46:15.736Z,14.84
2023-03-19T08:47:57.647Z,16.05
2023-03-19T08:49:32.921Z,15.74
2023-03-19T08:51:08.810Z,15.79
2023-03-19T08:52:55.231Z,14.77
2023-03-19T08:54:44.165Z,15.79
2023-03-19T08:56:17.276Z,15.01
2023-03-19T08:58:10.600Z,14.73
2023-03-19T08:59:35.095Z,14.89
2023-03-19T09:01:10.586Z,15.14
2023-03-19T09:02:52.082Z,14.65
2023-03-19T09:04:37.529Z,14.40
2023-03-19T09:06:22.500Z,14.91
2023-03-19T09:08:14.532Z,14.34
2023-03-19T09:09:51.806Z,14.07
2023-03-19T09:11:27.840Z,14.55
2023-03-19T09:13:07.988Z,13.73
2023-03-19T09:14:53.879Z,14.21
2023-03-19T09:16:47.287Z,14.18
2023-03-19T09:18:13.702Z,13.33
2023-03-19T09:19:45.372Z,13.33
2023-03-19T09:21:18.683Z,13.48
2023-03-19T09:23:13.912Z,13.34
2023-03-19T09:24:47.361Z,13.54
2023-03-19T09:26:20.798Z,13.24
2023-03-19T09:28:05.896Z,13.59
2023-03-19T09:29:51.438Z,13.69
2023-03-19T09:31:29.536Z,13.46
2023-03-19T09:33:11.242Z,13.51
2023-03-19T09:34:47.174Z,13.37
2023-03-19T09:36:11.231Z,13.29
2023-03-19T09:37:57.020Z,12.89
2023-03-19T09:39:51.450Z,12.94
2023-03-19T09:41:27.589Z,13.23
2023-03-19T09:43:16.996Z,13.12
2023-03-19T09:44:46.203Z,13.61
2023-03-19T09:46:22.946Z,14.61
2023-03-19T09:48:07.829Z,13.58
2023-03-19T09:49:53.118Z,13.17
2023-03-19T09:51:39.932Z,13.76
2023-03-19T09:53:15.867Z,14.79
2023-03-19T09:55:09.917Z,12.88
2023-03-19T09:56:45.612Z,13.81
2023-03-19T09:58:18.945Z,13.16
2023-03-19T10:00:08.132Z,13.35
2023-03-19T10:01:53.449Z,13.32
2023-03-19T10:03:38.607Z,13.73
2023-03-19T10:05:23.250Z,13.93
2023-03-19T10:07:08.733Z,12.22
2023-03-19T10:08:54.241Z,12.41
2023-03-19T10:10:47.600Z,13.11
2023-03-19T10:12:32.794Z,13.52
2023-03-19T10:14:18.055Z,14.24
2023-03-19T10:15:50.366Z,14.32
2023-03-19T10:17:35.806Z,13.62
2023-03-19T10:19:17.893Z,14.35
2023-03-19T10:21:05.866Z,13.31
2023-03-19T10:22:51.348Z,13.89
2023-03-19T10:24:24.237Z,13.56
2023-03-19T10:25:57.555Z,13.47
2023-03-19T10:27:18.994Z,13.19
2023-03-19T10:28:54.813Z,12.98
2023-03-19T10:30:39.321Z,12.77
2023-03-19T10:32:19.509Z,12.37
2023-03-19T10:34:04.990Z,11.35
2023-03-19T10:35:50.488Z,11.92
2023-03-19T10:37:35.225Z,10.82
2023-03-19T10:39:20.217Z,10.99
2023-03-19T10:41:13.784Z,11.43
2023-03-19T10:42:38.116Z,10.61
2023-03-19T10:44:12.947Z,11.16
2023-03-19T10:45:57.443Z,11.28
2023-03-19T10:47:30.713Z,11.84
2023-03-19T10:49:07.269Z,12.46
2023-03-19T10:50:53.613Z,11.53
2023-03-19T10:52:29.019Z,12.39
2023-03-19T10:54:02.201Z,12.50
2023-03-19T10:55:31.318Z,12.11
2023-03-19T10:57:16.611Z,10.57
2023-03-19T10:59:01.998Z,11.23
2023-03-19T11:00:49.921Z,11.74
2023-03-19T11:02:31.275Z,12.10
2023-03-19T11:03:55.784Z,11.96
2023-03-19T11:05:19.510Z,11.81
2023-03-19T11:06:57.276Z,11.61
2023-03-19T11:08:35.783Z,11.24
2023-03-19T11:10:13.025Z,11.92
2023-03-19T11:11:44.174Z,11.95
2023-03-19T11:13:08.161Z,11.90
2023-03-19T11:14:44.471Z,11.91
2023-03-19T11:16:05.998Z,11.91
2023-03-19T11:17:47.455Z,11.54
2023-03-19T11:19:09.370Z,11.02
2023-03-19T11:20:55.801Z,10.65
2023-03-19T11:22:24.683Z,11.09
2023-03-19T11:24:07.808Z,11.74
2023-03-19T11:25:50.781Z,11.02
2023-03-19T11:27:37.016Z,10.30
2023-03-19T11:29:21.347Z,10.16
2023-03-19T11:30:58.825Z,11.06
2023-03-19T11:32:34.813Z,11.31
2023-03-19T11:34:15.498Z,10.71
2023-03-19T11:35:37.781Z,10.69
2023-03-19T11:37:22.495Z,10.21
2023-03-19T11:39:07.656Z,10.49
2023-03-19T11:40:41.299Z,10.32
2023-03-19T11:42:22.359Z,9.99
2023-03-19T11:43:51.590Z,10.70
2023-03-19T11:45:39.134Z,10.43
2023-03-19T11:47:06.834Z,10.60
2023-03-19T11:48:39.597Z,9.77
2023-03-19T11:50:20.189Z,11.06
2023-03-19T11:51:59.883Z,12.01
2023-03-19T11:53:40.785Z,10.17
2023-03-19T11:55:14.233Z,9.54
2023-03-19T11:56:36.430Z,10.86
2023-03-19T11:58:11.956Z,9.84
2023-03-19T11:59:36.398Z,10.57
2023-03-19T12:01:10.446Z,10.12
2023-03-19T12:02:44.155Z,9.71
2023-03-19T12:04:17.600Z,11.40
2023-03-19T12:05:57.967Z,11.23
2023-03-19T12:07:42.588Z,10.21
2023-03-19T12:09:15.627Z,11.59
2023-03-19T12:10:49.121Z,10.85
2023-03-19T12:12:11.135Z,12.06
2023-03-19T12:13:37.795Z,11.89
2023-03-19T12:15:04.381Z,10.88
2023-03-19T12:16:46.547Z,10.56
2023-03-19T12:18:22.536Z,10.15
2023-03-19T12:19:49.006Z,11.57
2023-03-19T12:21:24.533Z,10.82
2023-03-19T12:23:09.799Z,11.30
2023-03-19T12:24:54.804Z,12.35
2023-03-19T12:26:30.334Z,10.28
2023-03-19T12:27:52.500Z,10.67
2023-03-19T12:29:26.604Z,11.44
2023-03-19T12:30:48.557Z,10.81
2023-03-19T12:32:22.045Z,11.84
2023-03-19T12:33:58.279Z,11.89
2023-03-19T12:35:43.722Z,11.67
2023-03-19T12:37:08.147Z,11.58
2023-03-19T12:38:48.807Z,10.28
2023-03-19T12:40:17.643Z,10.22
2023-03-19T12:42:03.045Z,10.37
2023-03-19T12:43:38.926Z,10.81
2023-03-19T12:45:14.590Z,10.46
2023-03-19T12:46:44.215Z,10.68
2023-03-19T12:48:29.073Z,10.78
2023-03-19T12:50:14.354Z,10.71
2023-03-19T12:51:43.703Z,10.17
2023-03-19T12:53:28.225Z,10.77
2023-03-19T12:55:14.721Z,11.00
2023-03-19T12:56:59.897Z,10.70
2023-03-19T12:58:35.654Z,11.23
2023-03-19T13:00:20.263Z,11.77
2023-03-19T13:01:54.144Z,10.89
2023-03-19T13:03:23.710Z,12.19
2023-03-19T13:04:57.517Z,11.80
2023-03-19T13:06:33.742Z,10.30
2023-03-19T13:08:07.230Z,10.53
2023-03-19T13:09:40.824Z,9.83
2023-03-19T13:11:16.341Z,9.57
2023-03-19T13:12:42.655Z,10.92
2023-03-19T13:14:27.719Z,10.57
2023-03-19T13:16:03.708Z,11.31
2023-03-19T13:17:57.303Z,10.30
2023-03-19T13:19:38.310Z,11.78
2023-03-19T13:21:11.667Z,10.32
2023-03-19T13:22:57.948Z,10.36
2023-03-19T13:24:43.270Z,11.15
2023-03-19T13:26:16.426Z,11.10
2023-03-19T13:28:05.703Z,13.36
2023-03-19T13:29:46.923Z,11.16
2023-03-19T13:31:40.313Z,10.34
2023-03-19T13:33:13.595Z,10.40
2023-03-19T13:34:59.071Z,11.44
2023-03-19T13:36:53.816Z,11.26
2023-03-19T13:38:27.251Z,10.77
2023-03-19T13:40:12.645Z,11.23
2023-03-19T13:41:41.845Z,15.06
2023-03-19T13:43:27.415Z,18.81
2023-03-19T13:45:13.606Z,13.96
2023-03-19T13:46:49.924Z,15.95
2023-03-19T13:48:26.428Z,14.68
2023-03-19T13:50:19.934Z,12.82
2023-03-19T13:52:13.333Z,14.27
2023-03-19T13:53:56.844Z,11.40
2023-03-19T13:55:42.262Z,10.97
2023-03-19T13:57:18.659Z,11.62
2023-03-19T13:59:01.555Z,15.88
2023-03-19T14:00:35.681Z,13.25
2023-03-19T14:02:05.188Z,12.60
2023-03-19T14:03:26.878Z,12.42
2023-03-19T14:05:03.625Z,11.76
2023-03-19T14:06:39.818Z,13.37
2023-03-19T14:08:03.774Z,12.13
2023-03-19T14:09:39.937Z,10.90
2023-03-19T14:11:24.542Z,10.67
2023-03-19T14:13:09.327Z,11.23
2023-03-19T14:14:33.884Z,11.34
2023-03-19T14:16:14.682Z,11.44
2023-03-19T14:17:50.312Z,11.64
2023-03-19T14:19:44.822Z,11.28
2023-03-19T14:21:21.820Z,11.09
2023-03-19T14:23:05.790Z,11.64
2023-03-19T14:26:21.076Z,10.71
2023-03-19T14:27:54.612Z,10.97
2023-03-19T14:29:18.659Z,11.57
2023-03-19T14:31:12.852Z,11.30
2023-03-19T14:32:57.865Z,14.10
2023-03-19T14:34:28.878Z,11.05
2023-03-19T14:36:14.129Z,11.81
2023-03-19T14:37:55.886Z,15.70
2023-03-19T14:39:29.118Z,11.74
2023-03-19T14:41:05.633Z,11.55
2023-03-19T14:42:43.354Z,10.91
2023-03-19T14:44:16.742Z,12.14
2023-03-19T14:46:06.849Z,11.15
2023-03-19T14:47:42.085Z,11.16
2023-03-19T14:49:12.865Z,11.11
2023-03-19T14:52:39.712Z,11.08
2023-03-19T14:54:24.402Z,10.62
2023-03-19T14:55:56.133Z,12.13
2023-03-19T14:57:17.816Z,10.26
2023-03-19T14:59:03.704Z,11.26
2023-03-19T15:00:33.027Z,11.77
2023-03-19T15:02:04.240Z,11.19
2023-03-19T15:03:38.170Z,11.92
2023-03-19T15:05:13.602Z,12.80
2023-03-19T15:06:54.477Z,12.57
2023-03-19T15:08:34.889Z,13.08
2023-03-19T15:10:08.540Z,11.33
2023-03-19T15:11:50.390Z,11.30
2023-03-19T15:13:23.537Z,10.82
2023-03-19T15:14:45.830Z,11.02
2023-03-19T15:16:19.016Z,10.05
2023-03-19T15:18:03.126Z,10.45
2023-03-19T15:19:37.824Z,11.23
2023-03-19T15:21:22.531Z,10.47
2023-03-19T15:22:52.280Z,10.40
2023-03-19T15:24:26.964Z,10.44
2023-03-19T15:26:03.001Z,12.66
2023-03-19T15:27:39.450Z,11.27
2023-03-19T15:29:20.274Z,11.01
2023-03-19T15:31:12.447Z,14.71
2023-03-19T15:33:07.947Z,16.50
2023-03-19T15:34:32.649Z,22.36
2023-03-19T15:36:19.247Z,27.11
2023-03-19T15:37:49.020Z,42.96
2023-03-19T15:39:20.685Z,82.80
2023-03-19T15:40:54.945Z,71.80
2023-03-19T15:42:31.554Z,58.80
2023-03-19T15:44:16.884Z,33.84
2023-03-19T15:45:51.806Z,21.29
2023-03-19T15:47:21.055Z,19.39
2023-03-19T15:49:06.501Z,20.92
2023-03-19T15:50:33.778Z,17.69
2023-03-19T15:52:10.151Z,18.13
2023-03-19T15:53:55.488Z,17.62
2023-03-19T15:55:46.107Z,15.57
2023-03-19T15:57:22.027Z,15.79
2023-03-19T15:59:07.238Z,14.50
2023-03-19T16:00:53.104Z,14.45
2023-03-19T16:02:38.193Z,14.26
2023-03-19T16:04:11.700Z,14.01
2023-03-19T16:05:36.105Z,13.37
2023-03-19T16:07:11.564Z,14.18
2023-03-19T16:08:56.596Z,13.41
2023-03-19T16:10:42.098Z,16.74
2023-03-19T16:12:27.249Z,15.99
2023-03-19T16:13:51.044Z,16.18
2023-03-19T16:15:31.863Z,16.16
2023-03-19T16:17:07.687Z,18.07
2023-03-19T16:19:02.887Z,19.15
2023-03-19T16:20:49.551Z,24.15
2023-03-19T16:22:23.224Z,25.61
2023-03-19T16:23:56.758Z,26.52
2023-03-19T16:25:42.311Z,24.81
2023-03-19T16:27:04.318Z,24.04
2023-03-19T16:28:28.527Z,22.53
2023-03-19T16:30:05.184Z,20.51
2023-03-19T16:31:54.894Z,20.75
2023-03-19T16:33:28.906Z,20.53
2023-03-19T16:35:15.149Z,20.25
2023-03-19T16:36:44.560Z,18.52
2023-03-19T16:38:15.752Z,19.88
2023-03-19T16:39:49.340Z,19.18
2023-03-19T16:41:34.113Z,19.65
2023-03-19T16:43:19.206Z,19.58
2023-03-19T16:45:01.199Z,22.70
2023-03-19T16:46:34.760Z,21.36
2023-03-19T16:48:03.816Z,22.72
2023-03-19T16:49:44.619Z,21.63
2023-03-19T16:51:08.596Z,21.45
2023-03-19T16:52:42.250Z,20.47
2023-03-19T16:54:20.729Z,21.43
2023-03-19T16:55:52.136Z,20.15
2023-03-19T16:57:27.692Z,20.28
2023-03-19T16:59:04.479Z,20.87
2023-03-19T17:00:41.019Z,20.81
2023-03-19T17:02:04.926Z,21.59
2023-03-19T17:03:38.512Z,23.46
2023-03-19T17:05:12.392Z,23.32
2023-03-19T17:06:55.881Z,24.97
2023-03-19T17:08:50.903Z,24.06
2023-03-19T17:10:24.289Z,24.62
2023-03-19T17:11:46.848Z,24.83
2023-03-19T17:13:20.908Z,27.50
2023-03-19T17:15:15.866Z,26.82
2023-03-19T17:17:02.859Z,25.77
2023-03-19T17:18:44.710Z,28.24
2023-03-19T17:20:18.038Z,28.10
2023-03-19T17:22:12.864Z,28.13
2023-03-19T17:23:53.742Z,26.54
2023-03-19T17:25:30.146Z,26.42
2023-03-19T17:27:15.284Z,26.60
2023-03-19T17:28:48.864Z,27.05
2023-03-19T17:30:13.048Z,28.41
2023-03-19T17:31:35.189Z,27.53
2023-03-19T17:33:08.596Z,30.03
2023-03-19T17:34:54.037Z,36.61
2023-03-19T17:36:25.797Z,35.12
2023-03-19T17:37:59.206Z,37.07
2023-03-19T17:39:21.345Z,36.01
2023-03-19T17:40:55.335Z,37.51
2023-03-19T17:42:37.876Z,32.77
2023-03-19T17:44:03.186Z,33.29
2023-03-19T17:45:49.238Z,32.91
2023-03-19T17:47:22.304Z,34.62
2023-03-19T17:48:55.450Z,34.79
2023-03-19T17:50:28.664Z,34.82
2023-03-19T17:52:14.241Z,35.34
2023-03-19T17:53:50.960Z,41.01
2023-03-19T17:55:24.577Z,40.09
2023-03-19T17:56:58.386Z,43.65
2023-03-19T17:58:31.978Z,42.55
2023-03-19T18:00:06.460Z,45.42
2023-03-19T18:01:53.180Z,42.65
2023-03-19T18:03:28.410Z,40.51
2023-03-19T18:04:52.451Z,39.09
2023-03-19T18:06:33.839Z,38.94
2023-03-19T18:08:03.301Z,39.73
2023-03-19T18:09:25.823Z,40.78
2023-03-19T18:10:59.387Z,40.87
2023-03-19T18:12:30.501Z,41.36
2023-03-19T18:14:17.087Z,41.64
2023-03-19T18:15:41.220Z,42.40
2023-03-19T18:17:05.090Z,42.23
2023-03-19T18:18:38.921Z,42.74
2023-03-19T18:20:13.565Z,42.08
2023-03-19T18:21:38.198Z,42.22
2023-03-19T18:23:00.376Z,45.98
2023-03-19T18:24:21.686Z,47.85
2023-03-19T18:25:43.987Z,52.16
2023-03-19T18:27:08.137Z,53.62
2023-03-19T18:28:30.191Z,51.28
2023-03-19T18:30:04.704Z,51.43
2023-03-19T18:31:58.116Z,53.54
2023-03-19T18:33:31.654Z,53.62
2023-03-19T18:35:05.304Z,53.21
2023-03-19T18:36:29.712Z,52.31
2023-03-19T18:38:14.891Z,48.54
2023-03-19T18:39:48.607Z,49.66
2023-03-19T18:41:21.440Z,49.92
2023-03-19T18:43:01.192Z,64.83
2023-03-19T18:44:33.995Z,57.90
2023-03-19T18:46:16.438Z,63.06
2023-03-19T18:48:03.486Z,75.78
2023-03-19T18:49:45.948Z,80.74
2023-03-19T18:51:22.017Z,73.29
2023-03-19T18:52:58.381Z,59.31
2023-03-19T18:54:33.710Z,56.78
2023-03-19T18:56:08.732Z,54.98
2023-03-19T18:57:30.710Z,53.70
2023-03-19T18:58:55.344Z,50.67
2023-03-19T19:00:28.791Z,51.38
2023-03-19T19:02:10.629Z,51.94
2023-03-19T19:03:55.811Z,46.18
2023-03-19T19:05:17.244Z,50.51
2023-03-19T19:06:47.851Z,49.23
2023-03-19T19:08:33.161Z,42.19
2023-03-19T19:10:05.264Z,44.45
2023-03-19T19:11:38.972Z,54.39
2023-03-19T19:13:08.184Z,47.25
2023-03-19T19:14:39.556Z,60.26
2023-03-19T19:16:06.488Z,62.67
2023-03-19T19:17:29.627Z,55.58
2023-03-19T19:18:56.386Z,54.20
2023-03-19T19:20:30.158Z,51.02
2023-03-19T19:22:06.206Z,61.36
2023-03-19T19:24:00.901Z,60.49
2023-03-19T19:25:22.705Z,49.66
2023-03-19T19:26:58.400Z,48.05
2023-03-19T19:28:27.997Z,50.60
2023-03-19T19:29:54.382Z,46.77
2023-03-19T19:31:27.823Z,42.27
2023-03-19T19:32:56.766Z,37.48
2023-03-19T19:34:30.371Z,34.49
2023-03-19T19:36:11.272Z,34.45
2023-03-19T19:37:56.347Z,31.88
2023-03-19T19:39:50.900Z,33.81
2023-03-19T19:41:24.123Z,33.65
2023-03-19T19:43:04.711Z,31.98
2023-03-19T19:44:28.829Z,31.77
2023-03-19T19:46:04.785Z,30.61
2023-03-19T19:47:58.118Z,30.85
2023-03-19T19:49:31.163Z,32.99
2023-03-19T19:51:04.457Z,39.96
2023-03-19T19:52:38.338Z,43.66
2023-03-19T19:54:13.678Z,47.54
2023-03-19T19:55:56.897Z,51.97
2023-03-19T19:57:21.306Z,49.61
2023-03-19T19:58:54.862Z,48.35
2023-03-19T20:00:36.030Z,43.23
2023-03-19T20:02:17.431Z,38.38
2023-03-19T20:03:42.311Z,34.95
2023-03-19T20:05:27.557Z,33.24
2023-03-19T20:08:51.250Z,32.64
2023-03-19T20:10:27.368Z,34.01
2023-03-19T20:12:20.656Z,36.77
2023-03-19T20:13:56.774Z,65.64
2023-03-19T20:15:38.135Z,69.53
2023-03-19T20:17:16.841Z,50.75
2023-03-19T20:18:54.963Z,50.43
2023-03-19T20:20:48.127Z,48.58
2023-03-19T20:22:33.341Z,54.12
2023-03-19T20:24:15.009Z,56.02
2023-03-19T20:25:39.467Z,101.44
2023-03-19T20:27:08.535Z,126.97
2023-03-19T20:28:35.670Z,182.15
2023-03-19T20:30:03.714Z,137.80
2023-03-19T20:31:44.742Z,77.84
2023-03-19T20:33:09.227Z,187.13
2023-03-19T20:34:44.929Z,125.98
2023-03-19T20:36:20.454Z,118.40
2023-03-19T20:37:42.302Z,71.07
2023-03-19T20:39:06.866Z,69.74
2023-03-19T20:40:40.725Z,72.97
2023-03-19T20:42:13.885Z,112.48
2023-03-19T20:43:49.445Z,97.59
2023-03-19T20:45:22.890Z,83.04
2023-03-19T20:47:00.123Z,69.98
2023-03-19T20:48:23.859Z,58.44
2023-03-19T20:50:06.879Z,63.03
2023-03-19T20:51:33.635Z,72.29
2023-03-19T20:53:06.433Z,70.11
2023-03-19T20:54:30.854Z,68.45
2023-03-19T20:55:54.798Z,65.22
2023-03-19T20:57:18.859Z,64.85
2023-03-19T20:58:43.389Z,63.20
2023-03-19T21:00:16.857Z,65.09
2023-03-19T21:01:52.821Z,69.26
2023-03-19T21:03:19.213Z,71.03
2023-03-19T21:04:56.835Z,70.77
2023-03-19T21:06:20.815Z,70.10
2023-03-19T21:07:45.280Z,68.18
2023-03-19T21:09:09.118Z,69.85
2023-03-19T21:10:43.047Z,70.60
2023-03-19T21:12:23.893Z,73.68
2023-03-19T21:14:04.626Z,73.52
2023-03-19T21:15:50.175Z,73.57
2023-03-19T21:17:23.468Z,74.75